Terminal Aerodrome Forecast
Issued by NWS Tallahassee, FL

Home | Current Version | Previous Version | Text Only | Print | Product List | Glossary On
Versions: 1 2 3 4 5 6 7 8 9 10 11 12 13 14
867
FTUS42 KTAE 110524
TAFTLH
TAF
KTLH 110524Z 1106/1206 06005KT P6SM SKC
     FM111000 10005KT P6SM BKN025
     FM120400 12006KT 4SM BR OVC015=

USA.gov is the U.S. government's official web portal to all federal, state and local government web resources and services.